createdAt,value
2022-10-14T00:01:54.959Z,4.53
2022-10-14T00:04:30.198Z,3.03
2022-10-14T00:07:05.545Z,3.60
2022-10-14T00:09:33.365Z,2.38
2022-10-14T00:12:01.200Z,3.22
2022-10-14T00:14:33.928Z,3.22
2022-10-14T00:17:05.022Z,3.72
2022-10-14T00:19:32.757Z,2.88
2022-10-14T00:22:02.806Z,2.38
2022-10-14T00:24:47.237Z,3.22
2022-10-14T00:27:21.366Z,3.20
2022-10-14T00:32:17.428Z,2.38
2022-10-14T00:34:45.495Z,4.47
2022-10-14T00:37:16.624Z,5.10
2022-10-14T00:39:44.770Z,3.80
2022-10-14T00:42:20.158Z,4.22
2022-10-14T00:45:02.639Z,5.47
2022-10-14T00:47:42.905Z,6.15
2022-10-14T00:50:16.093Z,2.92
2022-10-14T00:52:53.103Z,3.95
2022-10-14T00:55:22.060Z,7.65
2022-10-14T00:57:51.718Z,5.30
2022-10-14T01:00:25.768Z,4.65
2022-10-14T01:02:53.872Z,4.20
2022-10-14T01:05:35.448Z,3.67
2022-10-14T01:08:10.220Z,3.65
2022-10-14T01:10:44.819Z,3.67
2022-10-14T01:13:24.807Z,3.28
2022-10-14T01:16:01.836Z,4.03
2022-10-14T01:19:06.273Z,4.07
2022-10-14T01:21:38.649Z,3.33
2022-10-14T01:24:41.371Z,3.75
2022-10-14T01:27:20.837Z,4.07
2022-10-14T01:30:19.607Z,5.35
2022-10-14T01:32:58.946Z,3.22
2022-10-14T01:35:57.645Z,2.50
2022-10-14T01:38:30.814Z,3.50
2022-10-14T01:41:07.736Z,4.55
2022-10-14T01:43:36.653Z,3.20
2022-10-14T01:46:09.064Z,4.00
2022-10-14T01:48:46.935Z,4.18
2022-10-14T01:51:24.675Z,3.13
2022-10-14T01:53:58.968Z,3.13
2022-10-14T01:56:35.890Z,3.35
2022-10-14T01:59:07.865Z,4.60
2022-10-14T02:01:40.167Z,2.78
2022-10-14T02:04:23.965Z,3.17
2022-10-14T02:07:11.393Z,3.60
2022-10-14T02:09:49.926Z,2.60
2022-10-14T02:12:31.395Z,3.88
2022-10-14T02:15:11.707Z,3.45
2022-10-14T02:17:55.419Z,4.05
2022-10-14T02:20:30.271Z,3.22
2022-10-14T02:23:09.559Z,3.53
2022-10-14T02:25:41.981Z,4.20
2022-10-14T02:28:13.744Z,5.40
2022-10-14T02:30:48.679Z,3.97
2022-10-14T02:33:40.358Z,4.72
2022-10-14T02:36:15.227Z,3.63
2022-10-14T02:38:46.357Z,5.00
2022-10-14T02:41:22.437Z,3.58
2022-10-14T02:43:52.389Z,4.13
2022-10-14T02:46:22.068Z,3.78
2022-10-14T02:48:51.793Z,3.40
2022-10-14T02:51:20.390Z,3.50
2022-10-14T02:53:48.249Z,4.35
2022-10-14T02:56:17.358Z,2.90
2022-10-14T02:58:45.301Z,4.28
2022-10-14T03:01:13.354Z,3.30
2022-10-14T03:03:41.287Z,2.63
2022-10-14T03:06:10.499Z,4.05
2022-10-14T03:08:38.609Z,4.22
2022-10-14T03:11:07.805Z,3.35
2022-10-14T03:13:36.162Z,3.42
2022-10-14T03:16:04.468Z,3.63
2022-10-14T03:18:34.171Z,2.47
2022-10-14T03:21:11.037Z,2.85
2022-10-14T03:23:41.779Z,3.15
2022-10-14T03:26:13.668Z,3.38
2022-10-14T03:28:44.460Z,3.38
2022-10-14T03:31:18.898Z,2.50
2022-10-14T03:34:05.528Z,2.03
2022-10-14T03:36:36.823Z,2.40
2022-10-14T03:39:06.170Z,3.30
2022-10-14T03:41:50.557Z,3.67
2022-10-14T03:44:23.955Z,2.70
2022-10-14T03:47:24.229Z,3.05
2022-10-14T03:49:52.300Z,2.10
2022-10-14T03:52:29.917Z,3.15
2022-10-14T03:55:07.411Z,3.13
2022-10-14T03:57:35.868Z,3.30
2022-10-14T04:00:07.157Z,3.78
2022-10-14T04:02:44.372Z,2.90
2022-10-14T04:05:32.394Z,4.10
2022-10-14T04:08:04.566Z,3.40
2022-10-14T04:10:32.472Z,2.85
2022-10-14T04:13:01.133Z,3.10
2022-10-14T04:15:36.773Z,4.03
2022-10-14T04:18:25.018Z,1.88
2022-10-14T04:20:56.410Z,3.05
2022-10-14T04:23:27.657Z,3.50
2022-10-14T04:26:05.306Z,3.38
2022-10-14T04:28:33.822Z,3.67
2022-10-14T04:31:09.337Z,4.43
2022-10-14T04:33:49.125Z,4.28
2022-10-14T04:36:22.670Z,5.05
2022-10-14T04:38:51.706Z,4.50
2022-10-14T04:41:20.244Z,3.47
2022-10-14T04:43:50.346Z,3.00
2022-10-14T04:46:28.186Z,4.43
2022-10-14T04:48:55.956Z,3.65
2022-10-14T04:51:27.692Z,4.63
2022-10-14T04:54:11.291Z,3.33
2022-10-14T04:56:56.315Z,3.42
2022-10-14T04:59:24.556Z,4.07
2022-10-14T05:02:15.480Z,3.83
2022-10-14T05:04:58.271Z,3.22
2022-10-14T05:07:28.320Z,2.85
2022-10-14T05:10:06.259Z,3.60
2022-10-14T05:12:41.003Z,4.15
2022-10-14T05:15:10.951Z,3.47
2022-10-14T05:17:45.682Z,3.35
2022-10-14T05:20:17.427Z,3.25
2022-10-14T05:22:49.480Z,4.22
2022-10-14T05:25:18.791Z,2.70
2022-10-14T05:27:46.810Z,3.22
2022-10-14T05:30:14.975Z,3.00
2022-10-14T05:32:47.883Z,5.93
2022-10-14T05:35:39.888Z,5.15
2022-10-14T05:38:07.960Z,4.90
2022-10-14T05:40:41.261Z,5.30
2022-10-14T05:43:09.206Z,3.97
2022-10-14T05:45:40.973Z,5.28
2022-10-14T05:48:09.691Z,2.67
2022-10-14T05:50:37.887Z,4.70
2022-10-14T05:53:11.357Z,3.95
2022-10-14T05:55:44.587Z,3.50
2022-10-14T05:58:12.286Z,3.33
2022-10-14T06:00:43.794Z,5.47
2022-10-14T06:03:16.184Z,3.97
2022-10-14T06:05:45.837Z,3.03
2022-10-14T06:08:14.137Z,2.42
2022-10-14T06:10:41.906Z,3.33
2022-10-14T06:13:11.114Z,2.47
2022-10-14T06:15:40.331Z,3.63
2022-10-14T06:18:08.147Z,3.13
2022-10-14T06:20:36.479Z,4.07
2022-10-14T06:23:04.433Z,5.25
2022-10-14T06:25:32.633Z,5.40
2022-10-14T06:28:04.140Z,5.05
2022-10-14T06:30:33.501Z,4.55
2022-10-14T06:33:01.334Z,7.47
2022-10-14T06:35:29.236Z,4.03
2022-10-14T06:37:57.148Z,3.55
2022-10-14T06:40:25.012Z,4.57
2022-10-14T06:42:53.621Z,5.43
2022-10-14T06:45:21.429Z,4.18
2022-10-14T06:47:50.570Z,5.07
2022-10-14T06:50:18.579Z,4.18
2022-10-14T06:52:46.604Z,3.75
2022-10-14T06:55:14.677Z,3.72
2022-10-14T06:57:42.542Z,3.67
2022-10-14T07:00:11.680Z,3.47
2022-10-14T07:02:39.635Z,4.82
2022-10-14T07:05:09.377Z,4.03
2022-10-14T07:07:37.254Z,3.58
2022-10-14T07:10:05.461Z,3.85
2022-10-14T07:12:33.234Z,3.50
2022-10-14T07:15:00.961Z,4.07
2022-10-14T07:17:28.741Z,5.00
2022-10-14T07:19:56.479Z,5.65
2022-10-14T07:22:25.579Z,5.00
2022-10-14T07:24:53.271Z,5.75
2022-10-14T07:27:21.352Z,7.88
2022-10-14T07:29:49.260Z,8.40
2022-10-14T07:32:17.070Z,6.68
2022-10-14T07:34:44.826Z,5.38
2022-10-14T07:37:12.521Z,7.30
2022-10-14T07:39:41.644Z,5.28
2022-10-14T07:42:09.540Z,5.13
2022-10-14T07:44:39.631Z,6.32
2022-10-14T07:47:07.422Z,7.15
2022-10-14T07:49:35.469Z,8.10
2022-10-14T07:52:03.251Z,6.13
2022-10-14T07:54:32.559Z,9.80
2022-10-14T07:57:01.844Z,6.38
2022-10-14T07:59:29.661Z,6.07
2022-10-14T08:01:57.420Z,5.97
2022-10-14T08:04:26.112Z,7.93
2022-10-14T08:06:53.897Z,7.28
2022-10-14T08:09:22.141Z,8.15
2022-10-14T08:11:50.406Z,5.75
2022-10-14T08:14:19.467Z,6.97
2022-10-14T08:16:47.629Z,7.05
2022-10-14T08:19:15.809Z,7.88
2022-10-14T08:21:44.128Z,4.70
2022-10-14T08:24:12.478Z,6.10
2022-10-14T08:26:49.300Z,7.18
2022-10-14T08:29:17.212Z,5.30
2022-10-14T08:31:46.781Z,4.28
2022-10-14T08:34:14.501Z,9.63
2022-10-14T08:36:42.311Z,6.32
2022-10-14T08:41:55.522Z,6.07
2022-10-14T08:44:26.388Z,6.43
2022-10-14T08:46:58.486Z,7.07
2022-10-14T08:49:31.787Z,6.15
2022-10-14T08:52:03.750Z,5.07
2022-10-14T08:54:37.570Z,4.28
2022-10-14T08:57:07.089Z,4.97
2022-10-14T08:59:40.112Z,6.05
2022-10-14T09:02:22.184Z,4.75
2022-10-14T09:04:50.427Z,3.83
2022-10-14T09:07:20.838Z,4.35
2022-10-14T09:09:50.878Z,4.78
2022-10-14T09:12:24.164Z,4.30
2022-10-14T09:15:04.559Z,4.40
2022-10-14T09:17:38.140Z,3.67
2022-10-14T09:20:17.618Z,2.97
2022-10-14T09:22:47.226Z,4.20
2022-10-14T09:25:17.199Z,2.83
2022-10-14T09:30:16.518Z,3.83
2022-10-14T09:32:49.001Z,4.18
2022-10-14T09:35:23.789Z,3.78
2022-10-14T09:37:52.407Z,4.00
2022-10-14T09:40:27.654Z,2.80
2022-10-14T09:43:00.684Z,2.30
2022-10-14T09:45:31.519Z,2.40
2022-10-14T09:48:07.202Z,1.52
2022-10-14T09:50:39.281Z,1.92
2022-10-14T09:53:16.491Z,2.72
2022-10-14T09:56:00.326Z,2.53
2022-10-14T09:58:35.808Z,2.13
2022-10-14T10:01:04.462Z,1.98
2022-10-14T10:03:35.767Z,1.23
2022-10-14T10:06:07.402Z,1.88
2022-10-14T10:08:37.858Z,1.45
2022-10-14T10:11:08.892Z,3.53
2022-10-14T10:13:41.578Z,1.00
2022-10-14T10:16:20.024Z,1.10
2022-10-14T10:18:49.639Z,0.95
2022-10-14T10:21:20.056Z,1.17
2022-10-14T10:23:53.441Z,0.80
2022-10-14T10:26:25.919Z,1.58
2022-10-14T10:28:57.455Z,1.48
2022-10-14T10:31:48.276Z,1.52
2022-10-14T10:34:51.080Z,1.20
2022-10-14T10:37:30.658Z,0.70
2022-10-14T10:40:20.098Z,0.68
2022-10-14T10:42:59.704Z,0.60
2022-10-14T10:45:39.214Z,0.70
2022-10-14T10:48:15.655Z,0.60
2022-10-14T10:50:52.548Z,0.52
2022-10-14T10:53:45.368Z,0.63
2022-10-14T10:56:23.809Z,0.68
2022-10-14T10:59:06.443Z,0.82
2022-10-14T11:01:44.886Z,0.60
2022-10-14T11:04:32.060Z,0.75
2022-10-14T11:07:31.192Z,0.40
2022-10-14T11:10:25.380Z,1.10
2022-10-14T11:13:00.795Z,0.65
2022-10-14T11:15:45.722Z,0.63
2022-10-14T11:18:20.695Z,0.65
2022-10-14T11:21:01.505Z,0.50
2022-10-14T11:23:42.228Z,1.38
2022-10-14T11:26:30.390Z,0.50
2022-10-14T11:29:06.177Z,0.73
2022-10-14T11:31:39.615Z,0.65
2022-10-14T11:34:27.987Z,0.50
2022-10-14T11:37:04.873Z,0.60
2022-10-14T11:39:40.894Z,0.57
2022-10-14T11:42:28.658Z,0.52
2022-10-14T11:45:16.074Z,0.80
2022-10-14T11:47:52.111Z,0.73
2022-10-14T11:50:26.174Z,0.60
2022-10-14T11:55:30.931Z,3.05
2022-10-14T11:58:03.553Z,0.65
2022-10-14T12:00:35.006Z,0.77
2022-10-14T12:03:28.639Z,0.50
2022-10-14T12:06:04.239Z,0.30
2022-10-14T12:08:44.004Z,0.98
2022-10-14T12:11:19.642Z,0.30
2022-10-14T12:13:52.274Z,0.60
2022-10-14T12:16:22.519Z,0.38
2022-10-14T12:18:53.763Z,0.60
2022-10-14T12:21:33.266Z,0.40
2022-10-14T12:24:06.378Z,0.43
2022-10-14T12:26:50.073Z,0.63
2022-10-14T12:29:21.680Z,0.60
2022-10-14T12:31:51.933Z,0.50
2022-10-14T12:34:34.818Z,0.43
2022-10-14T12:37:51.200Z,0.37
2022-10-14T12:40:32.179Z,0.63
2022-10-14T12:43:05.359Z,0.40
2022-10-14T12:45:36.086Z,0.30
2022-10-14T12:48:08.489Z,0.88
2022-10-14T12:50:39.033Z,0.28
2022-10-14T12:53:09.169Z,0.32
2022-10-14T12:55:48.605Z,0.38
2022-10-14T12:58:24.848Z,0.50
2022-10-14T13:00:59.174Z,0.55
2022-10-14T13:03:29.354Z,1.27
2022-10-14T13:06:28.853Z,0.40
2022-10-14T13:09:19.923Z,0.40
2022-10-14T13:12:28.729Z,0.25
2022-10-14T13:15:00.484Z,0.50
2022-10-14T13:17:44.819Z,0.52
2022-10-14T13:23:21.028Z,0.20
2022-10-14T13:25:53.169Z,0.50
2022-10-14T13:28:29.566Z,0.20
2022-10-14T13:31:06.334Z,0.20
2022-10-14T13:33:41.743Z,0.52
2022-10-14T13:36:26.942Z,0.22
2022-10-14T13:39:08.141Z,0.20
2022-10-14T13:41:45.316Z,0.25
2022-10-14T13:44:26.538Z,0.30
2022-10-14T13:47:07.259Z,0.30
2022-10-14T13:49:40.471Z,0.30
2022-10-14T13:52:17.701Z,0.30
2022-10-14T13:54:45.624Z,0.40
2022-10-14T14:02:56.700Z,0.50
2022-10-14T14:11:15.599Z,0.20
2022-10-14T14:13:53.434Z,0.30
2022-10-14T14:16:30.182Z,0.10
2022-10-14T14:19:14.845Z,0.50
2022-10-14T14:21:42.689Z,0.17
2022-10-14T14:24:19.584Z,0.40
2022-10-14T14:26:55.261Z,0.40
2022-10-14T14:29:28.311Z,0.32
2022-10-14T14:32:07.160Z,0.20
2022-10-14T14:34:39.672Z,0.30
2022-10-14T14:40:06.551Z,0.20
2022-10-14T14:42:37.156Z,0.38
2022-10-14T14:45:08.690Z,0.30
2022-10-14T14:47:36.694Z,0.28
2022-10-14T14:52:59.284Z,0.50
2022-10-14T14:55:39.855Z,0.57
2022-10-14T14:58:21.339Z,0.35
2022-10-14T15:00:50.205Z,0.20
2022-10-14T15:03:21.136Z,0.35
2022-10-14T15:05:57.029Z,0.40
2022-10-14T15:08:28.741Z,0.75
2022-10-14T15:10:59.106Z,0.40
2022-10-14T15:13:31.139Z,0.50
2022-10-14T15:15:59.232Z,0.30
2022-10-14T15:18:28.790Z,1.08
2022-10-14T15:21:19.192Z,1.55
2022-10-14T15:24:03.198Z,0.50
2022-10-14T15:26:34.581Z,0.25
2022-10-14T15:29:18.700Z,0.50
2022-10-14T15:31:48.374Z,0.75
2022-10-14T15:34:21.683Z,0.90
2022-10-14T15:36:54.175Z,0.50
2022-10-14T15:39:23.115Z,0.88
2022-10-14T15:41:50.920Z,0.60
2022-10-14T15:44:18.797Z,0.60
2022-10-14T15:47:05.255Z,0.80
2022-10-14T15:49:37.045Z,1.80
2022-10-14T15:52:06.979Z,1.48
2022-10-14T15:54:34.883Z,0.55
2022-10-14T15:57:02.721Z,0.73
2022-10-14T15:59:30.447Z,0.65
2022-10-14T16:01:58.873Z,0.65
2022-10-14T16:04:27.945Z,0.70
2022-10-14T16:06:57.509Z,0.70
2022-10-14T16:09:27.723Z,0.63
2022-10-14T16:11:58.070Z,0.45
2022-10-14T16:14:27.001Z,0.60
2022-10-14T16:16:55.271Z,0.70
2022-10-14T16:19:23.027Z,0.60
2022-10-14T16:21:50.891Z,0.60
2022-10-14T16:24:20.595Z,0.73
2022-10-14T16:26:51.136Z,0.63
2022-10-14T16:29:20.709Z,0.85
2022-10-14T16:31:52.520Z,0.55
2022-10-14T16:34:21.519Z,0.60
2022-10-14T16:36:50.248Z,2.58
2022-10-14T16:39:21.293Z,0.75
2022-10-14T16:41:50.679Z,0.60
2022-10-14T16:44:27.777Z,0.80
2022-10-14T16:47:17.509Z,0.85
2022-10-14T16:49:46.997Z,1.13
2022-10-14T16:52:15.840Z,1.10
2022-10-14T16:54:43.915Z,0.98
2022-10-14T16:57:14.003Z,1.05
2022-10-14T16:59:41.823Z,0.75
2022-10-14T17:02:15.042Z,0.90
2022-10-14T17:04:46.112Z,0.77
2022-10-14T17:07:14.909Z,0.75
2022-10-14T17:09:42.629Z,1.00
2022-10-14T17:12:13.802Z,0.77
2022-10-14T17:14:49.551Z,1.33
2022-10-14T17:17:17.525Z,1.30
2022-10-14T17:19:45.469Z,1.20
2022-10-14T17:22:13.431Z,1.42
2022-10-14T17:24:41.165Z,1.08
2022-10-14T17:27:10.770Z,1.10
2022-10-14T17:29:38.609Z,0.80
2022-10-14T17:32:08.326Z,1.05
2022-10-14T17:34:36.127Z,1.27
2022-10-14T17:39:40.984Z,1.85
2022-10-14T17:42:08.846Z,1.88
2022-10-14T17:44:43.459Z,1.30
2022-10-14T17:47:13.117Z,1.02
2022-10-14T17:49:40.784Z,0.70
2022-10-14T17:52:08.557Z,0.80
2022-10-14T17:54:36.366Z,0.80
2022-10-14T17:57:04.251Z,1.23
2022-10-14T17:59:32.321Z,0.77
2022-10-14T18:02:03.852Z,1.20
2022-10-14T18:04:33.609Z,1.15
2022-10-14T18:07:01.565Z,0.90
2022-10-14T18:09:29.479Z,2.15
2022-10-14T18:12:12.987Z,2.25
2022-10-14T18:14:41.140Z,1.00
2022-10-14T18:17:10.635Z,1.23
2022-10-14T18:19:40.766Z,1.40
2022-10-14T18:22:11.035Z,1.15
2022-10-14T18:24:39.334Z,1.45
2022-10-14T18:27:07.576Z,2.25
2022-10-14T18:29:35.353Z,1.45
2022-10-14T18:32:03.089Z,1.10
2022-10-14T18:34:31.053Z,1.05
2022-10-14T18:37:00.241Z,3.15
2022-10-14T18:39:28.060Z,0.90
2022-10-14T18:41:55.906Z,2.75
2022-10-14T18:44:24.444Z,1.35
2022-10-14T18:46:52.858Z,1.83
2022-10-14T18:49:20.758Z,1.67
2022-10-14T18:51:48.654Z,1.30
2022-10-14T18:54:20.829Z,1.48
2022-10-14T18:56:49.781Z,2.05
2022-10-14T18:59:20.080Z,1.65
2022-10-14T19:01:52.071Z,1.70
2022-10-14T19:04:22.134Z,1.70
2022-10-14T19:06:50.220Z,2.65
2022-10-14T19:09:24.638Z,1.88
2022-10-14T19:11:53.496Z,1.58
2022-10-14T19:14:22.581Z,1.88
2022-10-14T19:16:50.418Z,1.48
2022-10-14T19:19:19.961Z,1.30
2022-10-14T19:21:53.996Z,1.63
2022-10-14T19:24:23.174Z,1.55
2022-10-14T19:26:51.588Z,0.88
2022-10-14T19:29:19.302Z,1.27
2022-10-14T19:31:47.141Z,1.23
2022-10-14T19:34:17.329Z,1.23
2022-10-14T19:36:45.897Z,2.05
2022-10-14T19:39:15.935Z,1.08
2022-10-14T19:41:46.632Z,1.00
2022-10-14T19:44:15.917Z,1.35
2022-10-14T19:46:44.321Z,1.52
2022-10-14T19:49:13.721Z,1.58
2022-10-14T19:51:41.788Z,1.35
2022-10-14T19:54:12.284Z,1.25
2022-10-14T19:56:40.472Z,1.77
2022-10-14T19:59:10.681Z,1.48
2022-10-14T20:01:38.510Z,1.42
2022-10-14T20:04:06.980Z,1.20
2022-10-14T20:06:37.924Z,1.40
2022-10-14T20:09:05.968Z,2.05
2022-10-14T20:11:34.082Z,2.67
2022-10-14T20:14:01.952Z,1.85
2022-10-14T20:16:31.103Z,1.83
2022-10-14T20:18:58.910Z,1.85
2022-10-14T20:21:26.888Z,1.92
2022-10-14T20:23:54.676Z,2.65
2022-10-14T20:26:22.968Z,1.80
2022-10-14T20:28:51.722Z,2.20
2022-10-14T20:31:21.847Z,1.20
2022-10-14T20:33:51.117Z,1.40
2022-10-14T20:36:20.732Z,3.13
2022-10-14T20:38:49.384Z,1.70
2022-10-14T20:41:19.390Z,1.20
2022-10-14T20:43:48.400Z,1.38
2022-10-14T20:46:17.175Z,1.02
2022-10-14T20:48:45.339Z,2.55
2022-10-14T20:51:17.519Z,1.58
2022-10-14T20:53:45.318Z,0.95
2022-10-14T20:56:14.063Z,1.95
2022-10-14T20:58:42.680Z,1.23
2022-10-14T21:01:12.736Z,1.23
2022-10-14T21:03:41.370Z,1.33
2022-10-14T21:06:11.477Z,1.48
2022-10-14T21:08:41.183Z,1.00
2022-10-14T21:11:14.879Z,1.20
2022-10-14T21:13:46.043Z,0.75
2022-10-14T21:16:16.031Z,0.50
2022-10-14T21:18:46.834Z,1.35
2022-10-14T21:21:16.799Z,0.60
2022-10-14T21:23:46.614Z,0.77
2022-10-14T21:26:14.821Z,0.82
2022-10-14T21:28:42.630Z,1.08
2022-10-14T21:31:13.720Z,1.15
2022-10-14T21:33:43.960Z,0.95
2022-10-14T21:36:13.925Z,1.50
2022-10-14T21:38:42.848Z,1.30
2022-10-14T21:41:12.654Z,1.95
2022-10-14T21:43:40.935Z,0.90
2022-10-14T21:46:11.470Z,1.13
2022-10-14T21:48:40.098Z,1.52
2022-10-14T21:51:10.283Z,1.30
2022-10-14T21:53:39.341Z,1.08
2022-10-14T21:56:07.878Z,1.17
2022-10-14T21:58:37.383Z,1.05
2022-10-14T22:01:07.661Z,0.65
2022-10-14T22:03:36.684Z,1.80
2022-10-14T22:06:06.918Z,2.08
2022-10-14T22:08:36.803Z,0.70
2022-10-14T22:11:05.694Z,1.20
2022-10-14T22:13:37.591Z,0.95
2022-10-14T22:16:06.012Z,1.05
2022-10-14T22:18:33.841Z,1.20
2022-10-14T22:21:04.982Z,1.35
2022-10-14T22:23:33.037Z,1.75
2022-10-14T22:26:01.894Z,1.65
2022-10-14T22:28:30.734Z,1.77
2022-10-14T22:31:05.741Z,1.45
2022-10-14T22:33:35.245Z,1.75
2022-10-14T22:36:08.042Z,2.35
2022-10-14T22:38:36.787Z,2.30
2022-10-14T22:41:04.880Z,2.20
2022-10-14T22:43:34.064Z,2.88
2022-10-14T22:46:05.807Z,2.15
2022-10-14T22:48:34.495Z,2.17
2022-10-14T22:51:08.219Z,2.38
2022-10-14T22:53:37.522Z,1.27
2022-10-14T22:56:06.488Z,1.92
2022-10-14T22:58:34.680Z,1.88
2022-10-14T23:01:12.158Z,1.65
2022-10-14T23:03:40.506Z,1.45
2022-10-14T23:06:11.267Z,1.20
2022-10-14T23:08:41.182Z,1.38
2022-10-14T23:11:11.152Z,1.65
2022-10-14T23:13:38.967Z,1.17
2022-10-14T23:16:08.672Z,1.38
2022-10-14T23:18:39.745Z,1.40
2022-10-14T23:21:12.505Z,1.13
2022-10-14T23:23:40.984Z,0.90
2022-10-14T23:26:10.183Z,0.98
2022-10-14T23:28:38.329Z,1.08
2022-10-14T23:31:11.077Z,1.08
2022-10-14T23:33:40.734Z,1.10
2022-10-14T23:36:10.757Z,1.10
2022-10-14T23:38:39.826Z,1.48
2022-10-14T23:41:09.219Z,1.20
2022-10-14T23:43:40.669Z,1.15
2022-10-14T23:46:09.344Z,1.20
2022-10-14T23:48:37.576Z,1.73
2022-10-14T23:51:09.829Z,1.55
2022-10-14T23:53:40.121Z,1.73
2022-10-14T23:56:08.681Z,1.50
2022-10-14T23:58:36.565Z,1.55
